sensor_id;sensor_type;location;lat;lon;timestamp;temperature;humidity
76751;SHT31;65216;51.090;-115.352;2023-10-09T00:02:02;24.83;24.31
76751;SHT31;65216;51.090;-115.352;2023-10-09T00:04:32;24.82;24.27
76751;SHT31;65216;51.090;-115.352;2023-10-09T00:07:02;24.81;24.35
76751;SHT31;65216;51.090;-115.352;2023-10-09T00:09:34;24.78;24.35
76751;SHT31;65216;51.090;-115.352;2023-10-09T00:12:02;24.76;24.30
76751;SHT31;65216;51.090;-115.352;2023-10-09T00:14:35;24.69;24.35
76751;SHT31;65216;51.090;-115.352;2023-10-09T00:17:04;24.66;24.53
76751;SHT31;65216;51.090;-115.352;2023-10-09T00:19:37;24.62;24.65
76751;SHT31;65216;51.090;-115.352;2023-10-09T00:22:03;24.58;24.77
76751;SHT31;65216;51.090;-115.352;2023-10-09T00:24:37;24.56;24.88
76751;SHT31;65216;51.090;-115.352;2023-10-09T00:27:11;24.54;24.94
76751;SHT31;65216;51.090;-115.352;2023-10-09T00:29:39;24.48;25.12
76751;SHT31;65216;51.090;-115.352;2023-10-09T00:32:11;24.43;25.30
76751;SHT31;65216;51.090;-115.352;2023-10-09T00:34:50;24.39;25.41
76751;SHT31;65216;51.090;-115.352;2023-10-09T00:37:17;24.40;25.44
76751;SHT31;65216;51.090;-115.352;2023-10-09T00:39:49;24.37;25.59
76751;SHT31;65216;51.090;-115.352;2023-10-09T00:42:27;24.38;25.74
76751;SHT31;65216;51.090;-115.352;2023-10-09T00:44:55;24.30;25.88
76751;SHT31;65216;51.090;-115.352;2023-10-09T00:47:35;24.25;26.04
76751;SHT31;65216;51.090;-115.352;2023-10-09T00:50:09;24.22;26.19
76751;SHT31;65216;51.090;-115.352;2023-10-09T00:52:57;24.15;26.44
76751;SHT31;65216;51.090;-115.352;2023-10-09T00:55:40;24.12;26.52
76751;SHT31;65216;51.090;-115.352;2023-10-09T00:58:08;24.12;26.64
76751;SHT31;65216;51.090;-115.352;2023-10-09T01:00:40;24.16;26.69
76751;SHT31;65216;51.090;-115.352;2023-10-09T01:03:12;24.13;26.82
76751;SHT31;65216;51.090;-115.352;2023-10-09T01:05:42;24.11;26.94
76751;SHT31;65216;51.090;-115.352;2023-10-09T01:08:31;24.09;27.01
76751;SHT31;65216;51.090;-115.352;2023-10-09T01:13:49;24.03;27.18
76751;SHT31;65216;51.090;-115.352;2023-10-09T01:16:17;24.03;27.19
76751;SHT31;65216;51.090;-115.352;2023-10-09T01:18:50;24.02;27.25
76751;SHT31;65216;51.090;-115.352;2023-10-09T01:21:24;23.98;27.38
76751;SHT31;65216;51.090;-115.352;2023-10-09T01:26:29;23.92;27.60
76751;SHT31;65216;51.090;-115.352;2023-10-09T01:29:11;23.89;27.71
76751;SHT31;65216;51.090;-115.352;2023-10-09T01:34:20;23.83;28.03
76751;SHT31;65216;51.090;-115.352;2023-10-09T01:39:46;23.80;28.25
76751;SHT31;65216;51.090;-115.352;2023-10-09T01:42:14;23.79;28.42
76751;SHT31;65216;51.090;-115.352;2023-10-09T01:45:04;23.74;28.57
76751;SHT31;65216;51.090;-115.352;2023-10-09T01:47:53;23.73;28.61
76751;SHT31;65216;51.090;-115.352;2023-10-09T01:50:30;23.69;28.67
76751;SHT31;65216;51.090;-115.352;2023-10-09T01:53:01;23.68;28.73
76751;SHT31;65216;51.090;-115.352;2023-10-09T01:55:31;23.69;28.78
76751;SHT31;65216;51.090;-115.352;2023-10-09T01:58:07;23.69;28.81
76751;SHT31;65216;51.090;-115.352;2023-10-09T02:00:42;23.67;28.86
76751;SHT31;65216;51.090;-115.352;2023-10-09T02:03:15;23.65;28.91
76751;SHT31;65216;51.090;-115.352;2023-10-09T02:05:42;23.65;28.99
76751;SHT31;65216;51.090;-115.352;2023-10-09T02:08:10;23.66;29.03
76751;SHT31;65216;51.090;-115.352;2023-10-09T02:10:38;23.64;29.15
76751;SHT31;65216;51.090;-115.352;2023-10-09T02:13:06;23.62;29.25
76751;SHT31;65216;51.090;-115.352;2023-10-09T02:15:39;23.60;29.31
76751;SHT31;65216;51.090;-115.352;2023-10-09T02:18:10;23.60;29.45
76751;SHT31;65216;51.090;-115.352;2023-10-09T02:20:45;23.59;29.45
76751;SHT31;65216;51.090;-115.352;2023-10-09T02:23:38;23.55;29.50
76751;SHT31;65216;51.090;-115.352;2023-10-09T02:26:15;23.54;29.53
76751;SHT31;65216;51.090;-115.352;2023-10-09T02:28:45;23.54;29.58
76751;SHT31;65216;51.090;-115.352;2023-10-09T02:31:23;23.52;29.64
76751;SHT31;65216;51.090;-115.352;2023-10-09T02:34:01;23.51;29.62
76751;SHT31;65216;51.090;-115.352;2023-10-09T02:36:30;23.50;29.69
76751;SHT31;65216;51.090;-115.352;2023-10-09T02:39:00;23.48;29.67
76751;SHT31;65216;51.090;-115.352;2023-10-09T02:41:30;23.47;29.68
76751;SHT31;65216;51.090;-115.352;2023-10-09T02:43:59;23.46;29.67
76751;SHT31;65216;51.090;-115.352;2023-10-09T02:46:35;23.46;29.65
76751;SHT31;65216;51.090;-115.352;2023-10-09T02:49:07;23.46;29.68
76751;SHT31;65216;51.090;-115.352;2023-10-09T02:51:35;23.44;29.70
76751;SHT31;65216;51.090;-115.352;2023-10-09T02:54:22;23.42;29.70
76751;SHT31;65216;51.090;-115.352;2023-10-09T02:56:49;23.42;29.71
76751;SHT31;65216;51.090;-115.352;2023-10-09T02:59:22;23.41;29.77
76751;SHT31;65216;51.090;-115.352;2023-10-09T03:01:52;23.40;29.72
76751;SHT31;65216;51.090;-115.352;2023-10-09T03:04:19;23.38;29.71
76751;SHT31;65216;51.090;-115.352;2023-10-09T03:06:49;23.37;29.74
76751;SHT31;65216;51.090;-115.352;2023-10-09T03:09:22;23.36;29.70
76751;SHT31;65216;51.090;-115.352;2023-10-09T03:11:54;23.35;29.63
76751;SHT31;65216;51.090;-115.352;2023-10-09T03:14:33;23.33;29.54
76751;SHT31;65216;51.090;-115.352;2023-10-09T03:17:05;23.33;29.50
76751;SHT31;65216;51.090;-115.352;2023-10-09T03:19:36;23.30;29.46
76751;SHT31;65216;51.090;-115.352;2023-10-09T03:22:04;23.28;29.40
76751;SHT31;65216;51.090;-115.352;2023-10-09T03:24:38;23.26;29.38
76751;SHT31;65216;51.090;-115.352;2023-10-09T03:27:10;23.24;29.36
76751;SHT31;65216;51.090;-115.352;2023-10-09T03:29:39;23.23;29.30
76751;SHT31;65216;51.090;-115.352;2023-10-09T03:32:14;23.23;29.25
76751;SHT31;65216;51.090;-115.352;2023-10-09T03:34:46;23.21;29.24
76751;SHT31;65216;51.090;-115.352;2023-10-09T03:37:17;23.20;29.20
76751;SHT31;65216;51.090;-115.352;2023-10-09T03:40:00;23.17;29.17
76751;SHT31;65216;51.090;-115.352;2023-10-09T03:42:31;23.15;29.20
76751;SHT31;65216;51.090;-115.352;2023-10-09T03:45:01;23.14;29.17
76751;SHT31;65216;51.090;-115.352;2023-10-09T03:47:38;23.14;29.13
76751;SHT31;65216;51.090;-115.352;2023-10-09T03:50:08;23.14;29.11
76751;SHT31;65216;51.090;-115.352;2023-10-09T03:52:52;23.14;29.09
76751;SHT31;65216;51.090;-115.352;2023-10-09T03:55:20;23.13;29.05
76751;SHT31;65216;51.090;-115.352;2023-10-09T03:57:50;23.11;29.11
76751;SHT31;65216;51.090;-115.352;2023-10-09T04:00:23;23.12;29.34
76751;SHT31;65216;51.090;-115.352;2023-10-09T04:02:55;23.11;29.32
76751;SHT31;65216;51.090;-115.352;2023-10-09T04:05:24;23.09;29.35
76751;SHT31;65216;51.090;-115.352;2023-10-09T04:07:54;23.08;29.39
76751;SHT31;65216;51.090;-115.352;2023-10-09T04:10:24;23.07;29.34
76751;SHT31;65216;51.090;-115.352;2023-10-09T04:13:18;23.06;29.30
76751;SHT31;65216;51.090;-115.352;2023-10-09T04:15:50;23.05;29.49
76751;SHT31;65216;51.090;-115.352;2023-10-09T04:18:20;23.05;30.00
76751;SHT31;65216;51.090;-115.352;2023-10-09T04:20:56;23.08;29.85
76751;SHT31;65216;51.090;-115.352;2023-10-09T04:23:45;23.04;30.04
76751;SHT31;65216;51.090;-115.352;2023-10-09T04:26:30;23.02;30.20
76751;SHT31;65216;51.090;-115.352;2023-10-09T04:29:00;23.02;29.98
76751;SHT31;65216;51.090;-115.352;2023-10-09T04:31:33;23.03;29.84
76751;SHT31;65216;51.090;-115.352;2023-10-09T04:34:03;23.00;30.18
76751;SHT31;65216;51.090;-115.352;2023-10-09T04:36:54;22.99;29.91
76751;SHT31;65216;51.090;-115.352;2023-10-09T04:39:26;22.98;29.85
76751;SHT31;65216;51.090;-115.352;2023-10-09T04:41:57;22.96;29.80
76751;SHT31;65216;51.090;-115.352;2023-10-09T04:44:45;22.95;29.71
76751;SHT31;65216;51.090;-115.352;2023-10-09T04:47:28;22.95;29.62
76751;SHT31;65216;51.090;-115.352;2023-10-09T04:50:15;22.92;29.62
76751;SHT31;65216;51.090;-115.352;2023-10-09T04:52:56;22.92;29.61
76751;SHT31;65216;51.090;-115.352;2023-10-09T04:55:43;22.92;29.63
76751;SHT31;65216;51.090;-115.352;2023-10-09T04:58:33;22.92;29.53
76751;SHT31;65216;51.090;-115.352;2023-10-09T05:01:04;22.92;29.53
76751;SHT31;65216;51.090;-115.352;2023-10-09T05:03:38;22.93;29.46
76751;SHT31;65216;51.090;-115.352;2023-10-09T05:06:05;22.93;29.41
76751;SHT31;65216;51.090;-115.352;2023-10-09T05:08:54;22.92;29.38
76751;SHT31;65216;51.090;-115.352;2023-10-09T05:11:33;22.90;29.32
76751;SHT31;65216;51.090;-115.352;2023-10-09T05:14:24;22.89;29.31
76751;SHT31;65216;51.090;-115.352;2023-10-09T05:17:05;22.87;29.29
76751;SHT31;65216;51.090;-115.352;2023-10-09T05:19:32;22.85;29.31
76751;SHT31;65216;51.090;-115.352;2023-10-09T05:22:08;22.81;29.31
76751;SHT31;65216;51.090;-115.352;2023-10-09T05:25:01;22.81;29.30
76751;SHT31;65216;51.090;-115.352;2023-10-09T05:27:40;22.83;29.30
76751;SHT31;65216;51.090;-115.352;2023-10-09T05:30:16;22.81;29.30
76751;SHT31;65216;51.090;-115.352;2023-10-09T05:33:03;22.78;29.31
76751;SHT31;65216;51.090;-115.352;2023-10-09T05:35:50;22.76;29.35
76751;SHT31;65216;51.090;-115.352;2023-10-09T05:38:40;22.73;29.40
76751;SHT31;65216;51.090;-115.352;2023-10-09T05:41:24;22.70;29.41
76751;SHT31;65216;51.090;-115.352;2023-10-09T05:44:18;22.67;29.45
76751;SHT31;65216;51.090;-115.352;2023-10-09T05:47:03;22.66;29.47
76751;SHT31;65216;51.090;-115.352;2023-10-09T05:49:54;22.65;29.50
76751;SHT31;65216;51.090;-115.352;2023-10-09T05:52:48;22.62;29.50
76751;SHT31;65216;51.090;-115.352;2023-10-09T05:55:18;22.61;29.51
76751;SHT31;65216;51.090;-115.352;2023-10-09T05:57:55;22.61;29.50
76751;SHT31;65216;51.090;-115.352;2023-10-09T06:00:43;22.59;29.52
76751;SHT31;65216;51.090;-115.352;2023-10-09T06:03:28;22.57;29.59
76751;SHT31;65216;51.090;-115.352;2023-10-09T06:06:14;22.56;29.59
76751;SHT31;65216;51.090;-115.352;2023-10-09T06:09:05;22.55;29.61
76751;SHT31;65216;51.090;-115.352;2023-10-09T06:11:41;22.53;29.65
76751;SHT31;65216;51.090;-115.352;2023-10-09T06:14:30;22.52;29.67
76751;SHT31;65216;51.090;-115.352;2023-10-09T06:17:00;22.53;29.69
76751;SHT31;65216;51.090;-115.352;2023-10-09T06:19:27;22.54;29.67
76751;SHT31;65216;51.090;-115.352;2023-10-09T06:21:59;22.55;29.67
76751;SHT31;65216;51.090;-115.352;2023-10-09T06:24:45;22.55;29.64
76751;SHT31;65216;51.090;-115.352;2023-10-09T06:27:17;22.55;29.66
76751;SHT31;65216;51.090;-115.352;2023-10-09T06:29:57;22.52;29.68
76751;SHT31;65216;51.090;-115.352;2023-10-09T06:32:43;22.52;29.69
76751;SHT31;65216;51.090;-115.352;2023-10-09T06:35:28;22.51;29.70
76751;SHT31;65216;51.090;-115.352;2023-10-09T06:38:00;22.52;29.69
76751;SHT31;65216;51.090;-115.352;2023-10-09T06:43:19;22.50;29.70
76751;SHT31;65216;51.090;-115.352;2023-10-09T06:45:47;22.50;29.72
76751;SHT31;65216;51.090;-115.352;2023-10-09T06:48:27;22.47;29.75
76751;SHT31;65216;51.090;-115.352;2023-10-09T06:51:03;22.47;29.77
76751;SHT31;65216;51.090;-115.352;2023-10-09T06:53:52;22.46;29.79
76751;SHT31;65216;51.090;-115.352;2023-10-09T06:58:59;22.48;29.74
76751;SHT31;65216;51.090;-115.352;2023-10-09T07:01:43;22.46;29.77
76751;SHT31;65216;51.090;-115.352;2023-10-09T07:04:16;22.43;29.79
76751;SHT31;65216;51.090;-115.352;2023-10-09T07:07:06;22.42;29.81
76751;SHT31;65216;51.090;-115.352;2023-10-09T07:09:41;22.39;29.85
76751;SHT31;65216;51.090;-115.352;2023-10-09T07:12:09;22.38;29.86
76751;SHT31;65216;51.090;-115.352;2023-10-09T07:14:39;22.39;29.87
76751;SHT31;65216;51.090;-115.352;2023-10-09T07:17:07;22.39;29.84
76751;SHT31;65216;51.090;-115.352;2023-10-09T07:19:48;22.38;29.86
76751;SHT31;65216;51.090;-115.352;2023-10-09T07:22:16;22.37;29.89
76751;SHT31;65216;51.090;-115.352;2023-10-09T07:27:26;22.33;29.90
76751;SHT31;65216;51.090;-115.352;2023-10-09T07:30:16;22.35;29.90
76751;SHT31;65216;51.090;-115.352;2023-10-09T07:35:33;22.32;29.96
76751;SHT31;65216;51.090;-115.352;2023-10-09T07:38:20;22.30;29.93
76751;SHT31;65216;51.090;-115.352;2023-10-09T07:41:01;22.30;29.96
76751;SHT31;65216;51.090;-115.352;2023-10-09T07:43:34;22.28;29.96
76751;SHT31;65216;51.090;-115.352;2023-10-09T07:49:02;22.28;29.95
76751;SHT31;65216;51.090;-115.352;2023-10-09T07:51:40;22.25;29.96
76751;SHT31;65216;51.090;-115.352;2023-10-09T07:54:12;22.24;29.99
76751;SHT31;65216;51.090;-115.352;2023-10-09T07:56:58;22.23;29.99
76751;SHT31;65216;51.090;-115.352;2023-10-09T07:59:41;22.22;29.99
76751;SHT31;65216;51.090;-115.352;2023-10-09T08:02:28;22.20;30.00
76751;SHT31;65216;51.090;-115.352;2023-10-09T08:05:01;22.20;29.99
76751;SHT31;65216;51.090;-115.352;2023-10-09T08:07:48;22.21;29.97
76751;SHT31;65216;51.090;-115.352;2023-10-09T08:10:30;22.22;29.98
76751;SHT31;65216;51.090;-115.352;2023-10-09T08:12:57;22.20;29.96
76751;SHT31;65216;51.090;-115.352;2023-10-09T08:15:24;22.20;29.97
76751;SHT31;65216;51.090;-115.352;2023-10-09T08:18:02;22.18;29.96
76751;SHT31;65216;51.090;-115.352;2023-10-09T08:20:50;22.18;29.95
76751;SHT31;65216;51.090;-115.352;2023-10-09T08:23:36;22.15;29.96
76751;SHT31;65216;51.090;-115.352;2023-10-09T08:26:15;22.16;29.92
76751;SHT31;65216;51.090;-115.352;2023-10-09T08:29:14;22.16;29.92
76751;SHT31;65216;51.090;-115.352;2023-10-09T08:31:42;22.14;29.99
76751;SHT31;65216;51.090;-115.352;2023-10-09T08:34:13;22.14;29.95
76751;SHT31;65216;51.090;-115.352;2023-10-09T08:36:52;22.15;29.91
76751;SHT31;65216;51.090;-115.352;2023-10-09T08:39:22;22.13;29.92
76751;SHT31;65216;51.090;-115.352;2023-10-09T08:41:53;22.13;29.90
76751;SHT31;65216;51.090;-115.352;2023-10-09T08:44:24;22.11;29.94
76751;SHT31;65216;51.090;-115.352;2023-10-09T08:46:57;22.09;29.93
76751;SHT31;65216;51.090;-115.352;2023-10-09T08:49:25;22.08;29.98
76751;SHT31;65216;51.090;-115.352;2023-10-09T08:51:53;22.07;29.99
76751;SHT31;65216;51.090;-115.352;2023-10-09T08:54:21;22.10;29.93
76751;SHT31;65216;51.090;-115.352;2023-10-09T08:56:48;22.09;29.95
76751;SHT31;65216;51.090;-115.352;2023-10-09T08:59:15;22.08;29.98
76751;SHT31;65216;51.090;-115.352;2023-10-09T09:01:46;22.06;29.98
76751;SHT31;65216;51.090;-115.352;2023-10-09T09:07:04;22.09;29.96
76751;SHT31;65216;51.090;-115.352;2023-10-09T09:09:33;22.08;29.96
76751;SHT31;65216;51.090;-115.352;2023-10-09T09:12:00;22.07;29.99
76751;SHT31;65216;51.090;-115.352;2023-10-09T09:14:36;22.07;29.97
76751;SHT31;65216;51.090;-115.352;2023-10-09T09:17:06;22.06;29.99
76751;SHT31;65216;51.090;-115.352;2023-10-09T09:19:36;22.07;29.99
76751;SHT31;65216;51.090;-115.352;2023-10-09T09:22:06;22.08;30.00
76751;SHT31;65216;51.090;-115.352;2023-10-09T09:24:40;22.07;30.00
76751;SHT31;65216;51.090;-115.352;2023-10-09T09:27:43;22.08;30.00
76751;SHT31;65216;51.090;-115.352;2023-10-09T09:30:28;22.08;30.00
76751;SHT31;65216;51.090;-115.352;2023-10-09T09:33:03;22.08;30.00
76751;SHT31;65216;51.090;-115.352;2023-10-09T09:36:04;22.07;30.00
76751;SHT31;65216;51.090;-115.352;2023-10-09T09:38:33;22.07;29.99
76751;SHT31;65216;51.090;-115.352;2023-10-09T09:41:09;22.04;30.01
76751;SHT31;65216;51.090;-115.352;2023-10-09T09:43:38;22.02;30.02
76751;SHT31;65216;51.090;-115.352;2023-10-09T09:46:12;22.04;30.02
76751;SHT31;65216;51.090;-115.352;2023-10-09T09:48:43;22.04;30.00
76751;SHT31;65216;51.090;-115.352;2023-10-09T09:51:13;22.04;30.00
76751;SHT31;65216;51.090;-115.352;2023-10-09T09:53:44;22.08;30.00
76751;SHT31;65216;51.090;-115.352;2023-10-09T09:56:15;22.08;29.97
76751;SHT31;65216;51.090;-115.352;2023-10-09T09:58:50;22.08;29.99
76751;SHT31;65216;51.090;-115.352;2023-10-09T10:01:25;22.09;29.95
76751;SHT31;65216;51.090;-115.352;2023-10-09T10:04:09;22.09;29.95
76751;SHT31;65216;51.090;-115.352;2023-10-09T10:06:46;22.10;29.96
76751;SHT31;65216;51.090;-115.352;2023-10-09T10:09:36;22.10;29.94
76751;SHT31;65216;51.090;-115.352;2023-10-09T10:12:05;22.10;29.95
76751;SHT31;65216;51.090;-115.352;2023-10-09T10:17:26;22.08;29.99
76751;SHT31;65216;51.090;-115.352;2023-10-09T10:22:47;22.09;30.00
76751;SHT31;65216;51.090;-115.352;2023-10-09T10:25:34;22.09;30.00
76751;SHT31;65216;51.090;-115.352;2023-10-09T10:28:18;22.08;30.00
76751;SHT31;65216;51.090;-115.352;2023-10-09T10:31:03;22.06;30.04
76751;SHT31;65216;51.090;-115.352;2023-10-09T10:36:24;22.06;30.08
76751;SHT31;65216;51.090;-115.352;2023-10-09T10:41:38;22.07;30.02
76751;SHT31;65216;51.090;-115.352;2023-10-09T10:44:31;22.09;30.03
76751;SHT31;65216;51.090;-115.352;2023-10-09T10:47:00;22.08;30.05
76751;SHT31;65216;51.090;-115.352;2023-10-09T10:49:27;22.06;30.05
76751;SHT31;65216;51.090;-115.352;2023-10-09T10:52:06;22.09;30.01
76751;SHT31;65216;51.090;-115.352;2023-10-09T10:54:44;22.09;30.00
76751;SHT31;65216;51.090;-115.352;2023-10-09T10:57:14;22.07;30.01
76751;SHT31;65216;51.090;-115.352;2023-10-09T11:00:09;22.08;30.02
76751;SHT31;65216;51.090;-115.352;2023-10-09T11:02:43;22.06;30.04
76751;SHT31;65216;51.090;-115.352;2023-10-09T11:05:13;22.06;30.01
76751;SHT31;65216;51.090;-115.352;2023-10-09T11:07:49;22.07;30.00
76751;SHT31;65216;51.090;-115.352;2023-10-09T11:10:23;22.05;30.00
76751;SHT31;65216;51.090;-115.352;2023-10-09T11:12:54;22.05;30.04
76751;SHT31;65216;51.090;-115.352;2023-10-09T11:15:37;22.06;30.02
76751;SHT31;65216;51.090;-115.352;2023-10-09T11:18:12;22.06;30.00
76751;SHT31;65216;51.090;-115.352;2023-10-09T11:20:53;22.06;30.01
76751;SHT31;65216;51.090;-115.352;2023-10-09T11:23:30;22.06;30.00
76751;SHT31;65216;51.090;-115.352;2023-10-09T11:26:04;22.06;29.99
76751;SHT31;65216;51.090;-115.352;2023-10-09T11:29:11;22.06;30.00
76751;SHT31;65216;51.090;-115.352;2023-10-09T11:34:43;22.09;29.99
76751;SHT31;65216;51.090;-115.352;2023-10-09T11:37:18;22.08;29.96
76751;SHT31;65216;51.090;-115.352;2023-10-09T11:39:54;22.09;29.98
76751;SHT31;65216;51.090;-115.352;2023-10-09T11:42:22;22.11;29.96
76751;SHT31;65216;51.090;-115.352;2023-10-09T11:45:19;22.10;29.98
76751;SHT31;65216;51.090;-115.352;2023-10-09T11:47:54;22.09;29.98
76751;SHT31;65216;51.090;-115.352;2023-10-09T11:53:08;22.06;30.00
76751;SHT31;65216;51.090;-115.352;2023-10-09T11:55:49;22.05;30.03
76751;SHT31;65216;51.090;-115.352;2023-10-09T11:58:20;22.06;30.01
76751;SHT31;65216;51.090;-115.352;2023-10-09T12:00:49;22.05;30.00
76751;SHT31;65216;51.090;-115.352;2023-10-09T12:03:17;22.04;30.01
76751;SHT31;65216;51.090;-115.352;2023-10-09T12:05:48;22.07;30.00
76751;SHT31;65216;51.090;-115.352;2023-10-09T12:10:42;22.05;30.02
76751;SHT31;65216;51.090;-115.352;2023-10-09T12:13:13;22.04;30.07
76751;SHT31;65216;51.090;-115.352;2023-10-09T12:15:43;22.02;30.05
76751;SHT31;65216;51.090;-115.352;2023-10-09T12:18:14;22.00;30.07
76751;SHT31;65216;51.090;-115.352;2023-10-09T12:20:41;22.01;30.09
76751;SHT31;65216;51.090;-115.352;2023-10-09T12:23:19;22.00;30.09
76751;SHT31;65216;51.090;-115.352;2023-10-09T12:25:48;22.00;30.09
76751;SHT31;65216;51.090;-115.352;2023-10-09T12:28:17;22.01;30.05
76751;SHT31;65216;51.090;-115.352;2023-10-09T12:30:46;22.03;30.04
76751;SHT31;65216;51.090;-115.352;2023-10-09T12:33:17;22.02;30.05
76751;SHT31;65216;51.090;-115.352;2023-10-09T12:35:53;22.01;30.05
76751;SHT31;65216;51.090;-115.352;2023-10-09T12:38:29;22.02;30.05
76751;SHT31;65216;51.090;-115.352;2023-10-09T12:43:43;22.01;30.03
76751;SHT31;65216;51.090;-115.352;2023-10-09T12:46:10;22.01;30.04
76751;SHT31;65216;51.090;-115.352;2023-10-09T12:48:42;22.02;30.03
76751;SHT31;65216;51.090;-115.352;2023-10-09T12:51:13;22.00;30.04
76751;SHT31;65216;51.090;-115.352;2023-10-09T12:53:44;21.99;30.07
76751;SHT31;65216;51.090;-115.352;2023-10-09T12:56:20;22.00;30.00
76751;SHT31;65216;51.090;-115.352;2023-10-09T12:58:47;22.01;30.02
76751;SHT31;65216;51.090;-115.352;2023-10-09T13:01:22;22.03;30.00
76751;SHT31;65216;51.090;-115.352;2023-10-09T13:03:49;22.03;30.00
76751;SHT31;65216;51.090;-115.352;2023-10-09T13:06:15;22.02;30.00
76751;SHT31;65216;51.090;-115.352;2023-10-09T13:08:49;22.01;30.00
76751;SHT31;65216;51.090;-115.352;2023-10-09T13:11:17;22.00;30.00
76751;SHT31;65216;51.090;-115.352;2023-10-09T13:13:45;22.01;30.00
76751;SHT31;65216;51.090;-115.352;2023-10-09T13:16:16;22.01;30.00
76751;SHT31;65216;51.090;-115.352;2023-10-09T13:18:52;22.00;29.99
76751;SHT31;65216;51.090;-115.352;2023-10-09T13:21:25;22.01;30.00
76751;SHT31;65216;51.090;-115.352;2023-10-09T13:23:59;22.00;30.00
76751;SHT31;65216;51.090;-115.352;2023-10-09T13:26:27;22.01;30.01
76751;SHT31;65216;51.090;-115.352;2023-10-09T13:29:00;22.01;30.00
76751;SHT31;65216;51.090;-115.352;2023-10-09T13:31:29;22.03;29.96
76751;SHT31;65216;51.090;-115.352;2023-10-09T13:33:59;22.01;29.98
76751;SHT31;65216;51.090;-115.352;2023-10-09T13:36:28;22.03;29.97
76751;SHT31;65216;51.090;-115.352;2023-10-09T13:39:01;22.01;29.99
76751;SHT31;65216;51.090;-115.352;2023-10-09T13:47:01;22.00;29.99
76751;SHT31;65216;51.090;-115.352;2023-10-09T13:49:37;21.99;30.02
76751;SHT31;65216;51.090;-115.352;2023-10-09T13:52:09;22.01;30.00
76751;SHT31;65216;51.090;-115.352;2023-10-09T13:54:43;22.02;29.96
76751;SHT31;65216;51.090;-115.352;2023-10-09T13:57:14;22.02;29.93
76751;SHT31;65216;51.090;-115.352;2023-10-09T13:59:47;22.02;29.92
76751;SHT31;65216;51.090;-115.352;2023-10-09T14:02:21;22.01;29.96
76751;SHT31;65216;51.090;-115.352;2023-10-09T14:04:48;22.01;29.94
76751;SHT31;65216;51.090;-115.352;2023-10-09T14:07:18;22.01;29.92
76751;SHT31;65216;51.090;-115.352;2023-10-09T14:09:47;22.02;29.90
76751;SHT31;65216;51.090;-115.352;2023-10-09T14:12:20;22.04;29.90
76751;SHT31;65216;51.090;-115.352;2023-10-09T14:14:49;22.01;29.91
76751;SHT31;65216;51.090;-115.352;2023-10-09T14:17:19;22.01;29.93
76751;SHT31;65216;51.090;-115.352;2023-10-09T14:19:54;22.00;29.91
76751;SHT31;65216;51.090;-115.352;2023-10-09T14:22:48;22.02;29.90
76751;SHT31;65216;51.090;-115.352;2023-10-09T14:25:17;22.02;29.89
76751;SHT31;65216;51.090;-115.352;2023-10-09T14:27:46;22.00;29.90
76751;SHT31;65216;51.090;-115.352;2023-10-09T14:30:13;22.01;29.90
76751;SHT31;65216;51.090;-115.352;2023-10-09T14:32:48;22.02;29.90
76751;SHT31;65216;51.090;-115.352;2023-10-09T14:35:21;22.03;29.87
76751;SHT31;65216;51.090;-115.352;2023-10-09T14:37:54;22.04;29.89
76751;SHT31;65216;51.090;-115.352;2023-10-09T14:40:21;22.06;29.82
76751;SHT31;65216;51.090;-115.352;2023-10-09T14:42:55;22.04;29.82
76751;SHT31;65216;51.090;-115.352;2023-10-09T14:45:26;22.03;29.84
76751;SHT31;65216;51.090;-115.352;2023-10-09T14:47:54;22.02;29.88
76751;SHT31;65216;51.090;-115.352;2023-10-09T14:50:21;21.99;29.89
76751;SHT31;65216;51.090;-115.352;2023-10-09T14:52:49;21.96;29.90
76751;SHT31;65216;51.090;-115.352;2023-10-09T14:55:16;21.98;29.91
76751;SHT31;65216;51.090;-115.352;2023-10-09T14:57:52;21.97;29.91
76751;SHT31;65216;51.090;-115.352;2023-10-09T15:00:21;21.96;29.93
76751;SHT31;65216;51.090;-115.352;2023-10-09T15:02:52;21.94;29.90
76751;SHT31;65216;51.090;-115.352;2023-10-09T15:05:23;21.94;29.93
76751;SHT31;65216;51.090;-115.352;2023-10-09T15:07:50;21.96;29.91
76751;SHT31;65216;51.090;-115.352;2023-10-09T15:10:21;21.97;29.90
76751;SHT31;65216;51.090;-115.352;2023-10-09T15:12:52;21.99;29.88
76751;SHT31;65216;51.090;-115.352;2023-10-09T15:15:19;22.00;29.88
76751;SHT31;65216;51.090;-115.352;2023-10-09T15:17:51;22.00;29.88
76751;SHT31;65216;51.090;-115.352;2023-10-09T15:20:17;21.99;29.86
76751;SHT31;65216;51.090;-115.352;2023-10-09T15:22:46;21.98;29.86
76751;SHT31;65216;51.090;-115.352;2023-10-09T15:25:13;21.99;29.83
76751;SHT31;65216;51.090;-115.352;2023-10-09T15:27:41;21.99;29.85
76751;SHT31;65216;51.090;-115.352;2023-10-09T15:30:09;21.97;29.87
76751;SHT31;65216;51.090;-115.352;2023-10-09T15:32:39;21.96;29.90
76751;SHT31;65216;51.090;-115.352;2023-10-09T15:35:07;21.95;29.88
76751;SHT31;65216;51.090;-115.352;2023-10-09T15:37:41;21.95;29.89
76751;SHT31;65216;51.090;-115.352;2023-10-09T15:40:10;21.97;29.89
76751;SHT31;65216;51.090;-115.352;2023-10-09T15:42:42;21.97;29.89
76751;SHT31;65216;51.090;-115.352;2023-10-09T15:45:21;22.00;29.88
76751;SHT31;65216;51.090;-115.352;2023-10-09T15:47:50;22.06;29.81
76751;SHT31;65216;51.090;-115.352;2023-10-09T15:50:17;22.11;29.77
76751;SHT31;65216;51.090;-115.352;2023-10-09T15:52:51;22.16;29.70
76751;SHT31;65216;51.090;-115.352;2023-10-09T15:55:21;22.18;29.67
76751;SHT31;65216;51.090;-115.352;2023-10-09T15:57:52;22.23;29.65
76751;SHT31;65216;51.090;-115.352;2023-10-09T16:00:19;22.27;29.61
76751;SHT31;65216;51.090;-115.352;2023-10-09T16:02:56;22.27;29.60
76751;SHT31;65216;51.090;-115.352;2023-10-09T16:05:26;22.29;29.60
76751;SHT31;65216;51.090;-115.352;2023-10-09T16:07:58;22.31;29.59
76751;SHT31;65216;51.090;-115.352;2023-10-09T16:10:28;22.36;29.61
76751;SHT31;65216;51.090;-115.352;2023-10-09T16:13:02;22.38;29.60
76751;SHT31;65216;51.090;-115.352;2023-10-09T16:15:30;22.39;29.61
76751;SHT31;65216;51.090;-115.352;2023-10-09T16:17:58;22.39;29.68
76751;SHT31;65216;51.090;-115.352;2023-10-09T16:20:32;22.41;29.69
76751;SHT31;65216;51.090;-115.352;2023-10-09T16:22:59;22.42;29.70
76751;SHT31;65216;51.090;-115.352;2023-10-09T16:25:30;22.44;29.73
76751;SHT31;65216;51.090;-115.352;2023-10-09T16:28:01;22.44;29.82